sensor_id;sensor_type;location;lat;lon;timestamp;temperature;humidity
51988;DHT22;38003;52.012;4.346;2022-11-15T00:01:20;11.60;67.90
51988;DHT22;38003;52.012;4.346;2022-11-15T00:03:51;11.60;68.10
51988;DHT22;38003;52.012;4.346;2022-11-15T00:06:19;11.60;68.20
51988;DHT22;38003;52.012;4.346;2022-11-15T00:08:46;11.70;68.00
51988;DHT22;38003;52.012;4.346;2022-11-15T00:11:14;11.70;67.90
51988;DHT22;38003;52.012;4.346;2022-11-15T00:13:44;11.70;68.20
51988;DHT22;38003;52.012;4.346;2022-11-15T00:16:11;11.70;68.20
51988;DHT22;38003;52.012;4.346;2022-11-15T00:18:39;11.80;68.20
51988;DHT22;38003;52.012;4.346;2022-11-15T00:21:15;12.30;68.40
51988;DHT22;38003;52.012;4.346;2022-11-15T00:23:43;11.70;68.20
51988;DHT22;38003;52.012;4.346;2022-11-15T00:26:12;11.70;68.20
51988;DHT22;38003;52.012;4.346;2022-11-15T00:28:41;11.70;68.30
51988;DHT22;38003;52.012;4.346;2022-11-15T00:31:13;11.70;68.20
51988;DHT22;38003;52.012;4.346;2022-11-15T00:33:43;11.70;68.30
51988;DHT22;38003;52.012;4.346;2022-11-15T00:36:11;11.70;68.50
51988;DHT22;38003;52.012;4.346;2022-11-15T00:38:40;11.70;68.30
51988;DHT22;38003;52.012;4.346;2022-11-15T00:41:08;11.80;68.30
51988;DHT22;38003;52.012;4.346;2022-11-15T00:43:36;11.80;68.20
51988;DHT22;38003;52.012;4.346;2022-11-15T00:46:06;11.80;68.20
51988;DHT22;38003;52.012;4.346;2022-11-15T00:48:36;11.80;68.40
51988;DHT22;38003;52.012;4.346;2022-11-15T00:51:05;11.90;68.40
51988;DHT22;38003;52.012;4.346;2022-11-15T00:53:33;11.80;68.50
51988;DHT22;38003;52.012;4.346;2022-11-15T00:56:01;11.80;68.60
51988;DHT22;38003;52.012;4.346;2022-11-15T00:58:29;11.80;68.40
51988;DHT22;38003;52.012;4.346;2022-11-15T01:00:56;11.90;68.40
51988;DHT22;38003;52.012;4.346;2022-11-15T01:03:32;11.80;68.80
51988;DHT22;38003;52.012;4.346;2022-11-15T01:06:02;11.90;68.70
51988;DHT22;38003;52.012;4.346;2022-11-15T01:08:30;11.90;68.60
51988;DHT22;38003;52.012;4.346;2022-11-15T01:11:00;11.90;68.80
51988;DHT22;38003;52.012;4.346;2022-11-15T01:13:30;11.90;68.60
51988;DHT22;38003;52.012;4.346;2022-11-15T01:15:58;11.90;68.70
51988;DHT22;38003;52.012;4.346;2022-11-15T01:18:27;11.90;68.70
51988;DHT22;38003;52.012;4.346;2022-11-15T01:20:54;12.00;68.50
51988;DHT22;38003;52.012;4.346;2022-11-15T01:23:23;12.00;68.40
51988;DHT22;38003;52.012;4.346;2022-11-15T01:25:51;12.00;68.40
51988;DHT22;38003;52.012;4.346;2022-11-15T01:28:19;12.00;68.70
51988;DHT22;38003;52.012;4.346;2022-11-15T01:30:47;12.00;68.60
51988;DHT22;38003;52.012;4.346;2022-11-15T01:33:15;11.90;68.80
51988;DHT22;38003;52.012;4.346;2022-11-15T01:35:42;12.00;69.00
51988;DHT22;38003;52.012;4.346;2022-11-15T01:38:10;12.10;68.70
51988;DHT22;38003;52.012;4.346;2022-11-15T01:40:39;12.10;69.00
51988;DHT22;38003;52.012;4.346;2022-11-15T01:43:24;12.10;68.80
51988;DHT22;38003;52.012;4.346;2022-11-15T01:45:55;12.10;69.00
51988;DHT22;38003;52.012;4.346;2022-11-15T01:48:27;12.10;69.00
51988;DHT22;38003;52.012;4.346;2022-11-15T01:50:56;12.10;69.10
51988;DHT22;38003;52.012;4.346;2022-11-15T01:53:26;12.20;68.90
51988;DHT22;38003;52.012;4.346;2022-11-15T01:55:56;12.20;69.10
51988;DHT22;38003;52.012;4.346;2022-11-15T01:58:25;12.10;69.50
51988;DHT22;38003;52.012;4.346;2022-11-15T02:00:53;12.10;69.50
51988;DHT22;38003;52.012;4.346;2022-11-15T02:03:23;12.20;69.60
51988;DHT22;38003;52.012;4.346;2022-11-15T02:05:54;12.20;69.20
51988;DHT22;38003;52.012;4.346;2022-11-15T02:08:21;12.20;69.60
51988;DHT22;38003;52.012;4.346;2022-11-15T02:10:49;12.20;69.60
51988;DHT22;38003;52.012;4.346;2022-11-15T02:13:18;12.20;69.40
51988;DHT22;38003;52.012;4.346;2022-11-15T02:15:56;12.30;69.40
51988;DHT22;38003;52.012;4.346;2022-11-15T02:18:32;12.30;69.50
51988;DHT22;38003;52.012;4.346;2022-11-15T02:21:11;12.40;69.30
51988;DHT22;38003;52.012;4.346;2022-11-15T02:24:17;12.40;69.60
51988;DHT22;38003;52.012;4.346;2022-11-15T02:30:15;12.50;70.20
51988;DHT22;38003;52.012;4.346;2022-11-15T02:32:47;12.40;70.40
51988;DHT22;38003;52.012;4.346;2022-11-15T02:35:24;12.50;70.00
51988;DHT22;38003;52.012;4.346;2022-11-15T02:37:57;12.50;70.00
51988;DHT22;38003;52.012;4.346;2022-11-15T02:40:38;12.50;70.00
51988;DHT22;38003;52.012;4.346;2022-11-15T02:43:10;12.50;71.20
51988;DHT22;38003;52.012;4.346;2022-11-15T02:46:03;12.60;70.40
51988;DHT22;38003;52.012;4.346;2022-11-15T02:48:34;12.60;70.10
51988;DHT22;38003;52.012;4.346;2022-11-15T02:51:04;12.70;70.10
51988;DHT22;38003;52.012;4.346;2022-11-15T02:53:32;12.70;70.70
51988;DHT22;38003;52.012;4.346;2022-11-15T02:56:00;12.80;70.30
51988;DHT22;38003;52.012;4.346;2022-11-15T02:58:47;12.80;70.20
51988;DHT22;38003;52.012;4.346;2022-11-15T03:01:26;12.80;70.80
51988;DHT22;38003;52.012;4.346;2022-11-15T03:04:02;12.90;71.30
51988;DHT22;38003;52.012;4.346;2022-11-15T03:06:36;12.90;70.80
51988;DHT22;38003;52.012;4.346;2022-11-15T03:09:10;13.00;70.30
51988;DHT22;38003;52.012;4.346;2022-11-15T03:11:44;13.00;71.30
51988;DHT22;38003;52.012;4.346;2022-11-15T03:14:20;13.10;70.70
51988;DHT22;38003;52.012;4.346;2022-11-15T03:16:58;13.20;70.90
51988;DHT22;38003;52.012;4.346;2022-11-15T03:19:34;13.20;71.50
51988;DHT22;38003;52.012;4.346;2022-11-15T03:22:05;13.20;70.90
51988;DHT22;38003;52.012;4.346;2022-11-15T03:24:37;13.20;71.40
51988;DHT22;38003;52.012;4.346;2022-11-15T03:27:06;13.20;71.50
51988;DHT22;38003;52.012;4.346;2022-11-15T03:29:39;13.30;71.10
51988;DHT22;38003;52.012;4.346;2022-11-15T03:32:13;13.50;70.80
51988;DHT22;38003;52.012;4.346;2022-11-15T03:34:44;13.40;71.50
51988;DHT22;38003;52.012;4.346;2022-11-15T03:37:16;13.40;70.90
51988;DHT22;38003;52.012;4.346;2022-11-15T03:39:45;13.50;70.60
51988;DHT22;38003;52.012;4.346;2022-11-15T03:42:21;13.50;71.00
51988;DHT22;38003;52.012;4.346;2022-11-15T03:44:54;13.60;71.50
51988;DHT22;38003;52.012;4.346;2022-11-15T03:47:29;13.50;71.40
51988;DHT22;38003;52.012;4.346;2022-11-15T03:50:00;13.50;71.20
51988;DHT22;38003;52.012;4.346;2022-11-15T03:52:31;13.60;71.00
51988;DHT22;38003;52.012;4.346;2022-11-15T03:55:03;13.70;71.00
51988;DHT22;38003;52.012;4.346;2022-11-15T03:57:31;13.70;71.30
51988;DHT22;38003;52.012;4.346;2022-11-15T03:59:59;13.70;70.90
51988;DHT22;38003;52.012;4.346;2022-11-15T04:02:28;13.70;70.90
51988;DHT22;38003;52.012;4.346;2022-11-15T04:04:56;13.80;70.90
51988;DHT22;38003;52.012;4.346;2022-11-15T04:07:24;13.60;72.70
51988;DHT22;38003;52.012;4.346;2022-11-15T04:09:52;13.70;71.30
51988;DHT22;38003;52.012;4.346;2022-11-15T04:12:34;13.80;71.30
51988;DHT22;38003;52.012;4.346;2022-11-15T04:15:04;13.80;71.40
51988;DHT22;38003;52.012;4.346;2022-11-15T04:17:38;13.80;71.10
51988;DHT22;38003;52.012;4.346;2022-11-15T04:20:09;13.80;71.30
51988;DHT22;38003;52.012;4.346;2022-11-15T04:22:56;13.80;71.60
51988;DHT22;38003;52.012;4.346;2022-11-15T04:25:41;13.80;71.60
51988;DHT22;38003;52.012;4.346;2022-11-15T04:28:10;13.80;72.20
51988;DHT22;38003;52.012;4.346;2022-11-15T04:30:38;13.80;71.10
51988;DHT22;38003;52.012;4.346;2022-11-15T04:33:08;13.90;71.40
51988;DHT22;38003;52.012;4.346;2022-11-15T04:35:35;13.90;71.30
51988;DHT22;38003;52.012;4.346;2022-11-15T04:38:05;13.90;70.80
51988;DHT22;38003;52.012;4.346;2022-11-15T04:40:32;13.90;71.10
51988;DHT22;38003;52.012;4.346;2022-11-15T04:43:00;13.90;71.50
51988;DHT22;38003;52.012;4.346;2022-11-15T04:45:30;13.90;71.40
51988;DHT22;38003;52.012;4.346;2022-11-15T04:47:58;14.00;70.70
51988;DHT22;38003;52.012;4.346;2022-11-15T04:50:27;13.90;70.70
51988;DHT22;38003;52.012;4.346;2022-11-15T04:52:55;13.90;71.70
51988;DHT22;38003;52.012;4.346;2022-11-15T04:55:23;13.90;71.00
51988;DHT22;38003;52.012;4.346;2022-11-15T04:57:57;14.00;71.20
51988;DHT22;38003;52.012;4.346;2022-11-15T05:00:27;14.00;70.80
51988;DHT22;38003;52.012;4.346;2022-11-15T05:02:55;14.00;70.70
51988;DHT22;38003;52.012;4.346;2022-11-15T05:05:42;14.00;70.70
51988;DHT22;38003;52.012;4.346;2022-11-15T05:08:10;14.00;70.70
51988;DHT22;38003;52.012;4.346;2022-11-15T05:10:38;13.90;71.20
51988;DHT22;38003;52.012;4.346;2022-11-15T05:13:06;13.90;70.70
51988;DHT22;38003;52.012;4.346;2022-11-15T05:15:33;13.90;71.30
51988;DHT22;38003;52.012;4.346;2022-11-15T05:18:01;13.80;71.20
51988;DHT22;38003;52.012;4.346;2022-11-15T05:20:29;13.80;71.40
51988;DHT22;38003;52.012;4.346;2022-11-15T05:22:58;13.80;71.30
51988;DHT22;38003;52.012;4.346;2022-11-15T05:25:26;13.80;71.00
51988;DHT22;38003;52.012;4.346;2022-11-15T05:27:54;13.80;71.10
51988;DHT22;38003;52.012;4.346;2022-11-15T05:30:22;13.80;70.60
51988;DHT22;38003;52.012;4.346;2022-11-15T05:32:50;13.90;70.70
51988;DHT22;38003;52.012;4.346;2022-11-15T05:35:21;13.80;70.70
51988;DHT22;38003;52.012;4.346;2022-11-15T05:37:53;13.80;71.10
51988;DHT22;38003;52.012;4.346;2022-11-15T05:40:22;13.70;70.60
51988;DHT22;38003;52.012;4.346;2022-11-15T05:42:50;13.70;71.10
51988;DHT22;38003;52.012;4.346;2022-11-15T05:45:18;13.60;71.20
51988;DHT22;38003;52.012;4.346;2022-11-15T05:47:52;13.70;70.80
51988;DHT22;38003;52.012;4.346;2022-11-15T05:50:21;13.70;70.70
51988;DHT22;38003;52.012;4.346;2022-11-15T05:52:49;13.70;70.60
51988;DHT22;38003;52.012;4.346;2022-11-15T05:55:18;13.70;70.50
51988;DHT22;38003;52.012;4.346;2022-11-15T05:57:47;13.70;70.60
51988;DHT22;38003;52.012;4.346;2022-11-15T06:00:16;13.70;70.40
51988;DHT22;38003;52.012;4.346;2022-11-15T06:02:43;13.60;70.50
51988;DHT22;38003;52.012;4.346;2022-11-15T06:05:11;13.60;70.50
51988;DHT22;38003;52.012;4.346;2022-11-15T06:07:39;13.70;70.30
51988;DHT22;38003;52.012;4.346;2022-11-15T06:10:08;13.70;70.00
51988;DHT22;38003;52.012;4.346;2022-11-15T06:12:36;13.70;70.10
51988;DHT22;38003;52.012;4.346;2022-11-15T06:15:06;13.60;69.90
51988;DHT22;38003;52.012;4.346;2022-11-15T06:17:34;13.60;70.20
51988;DHT22;38003;52.012;4.346;2022-11-15T06:20:02;13.60;70.10
51988;DHT22;38003;52.012;4.346;2022-11-15T06:22:31;13.60;69.80
51988;DHT22;38003;52.012;4.346;2022-11-15T06:24:59;13.50;69.90
51988;DHT22;38003;52.012;4.346;2022-11-15T06:27:31;13.50;69.70
51988;DHT22;38003;52.012;4.346;2022-11-15T06:29:59;13.60;69.60
51988;DHT22;38003;52.012;4.346;2022-11-15T06:32:29;13.60;69.70
51988;DHT22;38003;52.012;4.346;2022-11-15T06:34:57;13.50;69.70
51988;DHT22;38003;52.012;4.346;2022-11-15T06:37:24;13.50;69.90
51988;DHT22;38003;52.012;4.346;2022-11-15T06:39:52;13.40;69.70
51988;DHT22;38003;52.012;4.346;2022-11-15T06:42:20;13.50;69.70
51988;DHT22;38003;52.012;4.346;2022-11-15T06:44:48;13.50;69.70
51988;DHT22;38003;52.012;4.346;2022-11-15T06:47:15;13.50;69.60
51988;DHT22;38003;52.012;4.346;2022-11-15T06:49:45;13.40;69.70
51988;DHT22;38003;52.012;4.346;2022-11-15T06:52:12;13.30;69.70
51988;DHT22;38003;52.012;4.346;2022-11-15T06:54:40;13.40;69.60
51988;DHT22;38003;52.012;4.346;2022-11-15T06:57:08;13.40;69.40
51988;DHT22;38003;52.012;4.346;2022-11-15T06:59:36;13.40;69.30
51988;DHT22;38003;52.012;4.346;2022-11-15T07:02:10;13.40;69.50
51988;DHT22;38003;52.012;4.346;2022-11-15T07:04:39;13.30;69.40
51988;DHT22;38003;52.012;4.346;2022-11-15T07:07:08;13.30;69.40
51988;DHT22;38003;52.012;4.346;2022-11-15T07:09:36;13.40;69.50
51988;DHT22;38003;52.012;4.346;2022-11-15T07:12:04;13.50;69.50
51988;DHT22;38003;52.012;4.346;2022-11-15T07:14:34;13.40;69.60
51988;DHT22;38003;52.012;4.346;2022-11-15T07:17:03;13.60;69.50
51988;DHT22;38003;52.012;4.346;2022-11-15T07:19:31;13.40;69.50
51988;DHT22;38003;52.012;4.346;2022-11-15T07:21:59;13.50;69.50
51988;DHT22;38003;52.012;4.346;2022-11-15T07:24:28;13.30;69.50
51988;DHT22;38003;52.012;4.346;2022-11-15T07:26:56;13.40;69.60
51988;DHT22;38003;52.012;4.346;2022-11-15T07:29:24;13.40;69.30
51988;DHT22;38003;52.012;4.346;2022-11-15T07:31:52;13.40;69.40
51988;DHT22;38003;52.012;4.346;2022-11-15T07:34:20;13.40;69.20
51988;DHT22;38003;52.012;4.346;2022-11-15T07:36:47;13.40;69.40
51988;DHT22;38003;52.012;4.346;2022-11-15T07:39:15;13.40;69.40
51988;DHT22;38003;52.012;4.346;2022-11-15T07:41:44;13.30;69.30
51988;DHT22;38003;52.012;4.346;2022-11-15T07:44:14;13.20;69.60
51988;DHT22;38003;52.012;4.346;2022-11-15T07:46:42;13.10;69.60
51988;DHT22;38003;52.012;4.346;2022-11-15T07:49:10;13.10;69.60
51988;DHT22;38003;52.012;4.346;2022-11-15T07:51:37;13.20;69.50
51988;DHT22;38003;52.012;4.346;2022-11-15T07:54:05;13.30;69.30
51988;DHT22;38003;52.012;4.346;2022-11-15T07:56:33;13.20;69.30
51988;DHT22;38003;52.012;4.346;2022-11-15T07:59:02;13.20;69.30
51988;DHT22;38003;52.012;4.346;2022-11-15T08:01:30;13.20;69.50
51988;DHT22;38003;52.012;4.346;2022-11-15T08:03:58;13.20;69.50
51988;DHT22;38003;52.012;4.346;2022-11-15T08:06:26;13.20;69.60
51988;DHT22;38003;52.012;4.346;2022-11-15T08:08:54;13.20;69.60
51988;DHT22;38003;52.012;4.346;2022-11-15T08:11:21;13.20;69.50
51988;DHT22;38003;52.012;4.346;2022-11-15T08:13:49;13.30;69.50
51988;DHT22;38003;52.012;4.346;2022-11-15T08:16:19;13.30;69.30
51988;DHT22;38003;52.012;4.346;2022-11-15T08:18:47;13.30;69.30
51988;DHT22;38003;52.012;4.346;2022-11-15T08:21:18;13.30;69.40
51988;DHT22;38003;52.012;4.346;2022-11-15T08:23:46;13.30;69.40
51988;DHT22;38003;52.012;4.346;2022-11-15T08:26:14;13.30;69.40
51988;DHT22;38003;52.012;4.346;2022-11-15T08:28:43;13.20;69.50
51988;DHT22;38003;52.012;4.346;2022-11-15T08:31:14;13.30;69.40
51988;DHT22;38003;52.012;4.346;2022-11-15T08:33:44;13.30;69.40
51988;DHT22;38003;52.012;4.346;2022-11-15T08:36:14;13.30;69.30
51988;DHT22;38003;52.012;4.346;2022-11-15T08:38:42;13.20;69.40
51988;DHT22;38003;52.012;4.346;2022-11-15T08:41:13;13.30;69.30
51988;DHT22;38003;52.012;4.346;2022-11-15T08:43:41;13.30;69.30
51988;DHT22;38003;52.012;4.346;2022-11-15T08:46:12;13.30;69.20
51988;DHT22;38003;52.012;4.346;2022-11-15T08:48:40;13.20;69.30
51988;DHT22;38003;52.012;4.346;2022-11-15T08:51:09;13.30;69.20
51988;DHT22;38003;52.012;4.346;2022-11-15T08:53:37;13.30;69.20
51988;DHT22;38003;52.012;4.346;2022-11-15T08:56:07;13.40;69.00
51988;DHT22;38003;52.012;4.346;2022-11-15T08:58:35;13.40;68.90
51988;DHT22;38003;52.012;4.346;2022-11-15T09:01:04;13.40;69.00
51988;DHT22;38003;52.012;4.346;2022-11-15T09:03:32;13.40;69.00
51988;DHT22;38003;52.012;4.346;2022-11-15T09:06:01;13.30;69.20
51988;DHT22;38003;52.012;4.346;2022-11-15T09:08:30;13.30;69.40
51988;DHT22;38003;52.012;4.346;2022-11-15T09:11:13;13.30;69.30
51988;DHT22;38003;52.012;4.346;2022-11-15T09:13:42;13.30;69.30
51988;DHT22;38003;52.012;4.346;2022-11-15T09:16:10;13.30;69.30
51988;DHT22;38003;52.012;4.346;2022-11-15T09:18:39;13.40;69.10
51988;DHT22;38003;52.012;4.346;2022-11-15T09:21:07;13.50;68.80
51988;DHT22;38003;52.012;4.346;2022-11-15T09:23:37;13.60;68.90
51988;DHT22;38003;52.012;4.346;2022-11-15T09:26:05;13.60;68.90
51988;DHT22;38003;52.012;4.346;2022-11-15T09:28:33;13.50;68.90
51988;DHT22;38003;52.012;4.346;2022-11-15T09:31:19;13.50;68.90
51988;DHT22;38003;52.012;4.346;2022-11-15T09:33:48;13.50;69.20
51988;DHT22;38003;52.012;4.346;2022-11-15T09:36:15;13.50;68.90
51988;DHT22;38003;52.012;4.346;2022-11-15T09:38:45;13.40;68.90
51988;DHT22;38003;52.012;4.346;2022-11-15T09:41:28;13.40;69.00
51988;DHT22;38003;52.012;4.346;2022-11-15T09:44:14;13.50;69.00
51988;DHT22;38003;52.012;4.346;2022-11-15T09:46:57;13.50;68.80
51988;DHT22;38003;52.012;4.346;2022-11-15T09:49:29;13.70;68.60
51988;DHT22;38003;52.012;4.346;2022-11-15T09:51:58;13.80;68.30
51988;DHT22;38003;52.012;4.346;2022-11-15T09:54:35;13.90;68.20
51988;DHT22;38003;52.012;4.346;2022-11-15T09:57:33;14.10;68.00
51988;DHT22;38003;52.012;4.346;2022-11-15T10:00:13;14.20;67.70
51988;DHT22;38003;52.012;4.346;2022-11-15T10:03:11;14.10;67.60
51988;DHT22;38003;52.012;4.346;2022-11-15T10:05:41;14.10;67.80
51988;DHT22;38003;52.012;4.346;2022-11-15T10:08:35;14.20;67.60
51988;DHT22;38003;52.012;4.346;2022-11-15T10:11:08;14.30;67.30
51988;DHT22;38003;52.012;4.346;2022-11-15T10:14:00;14.50;67.40
51988;DHT22;38003;52.012;4.346;2022-11-15T10:17:04;14.40;67.30
51988;DHT22;38003;52.012;4.346;2022-11-15T10:19:38;14.50;67.20
51988;DHT22;38003;52.012;4.346;2022-11-15T10:22:34;14.50;67.20
51988;DHT22;38003;52.012;4.346;2022-11-15T10:25:21;14.50;66.90
51988;DHT22;38003;52.012;4.346;2022-11-15T10:27:56;14.70;66.90
51988;DHT22;38003;52.012;4.346;2022-11-15T10:30:31;14.70;66.60
51988;DHT22;38003;52.012;4.346;2022-11-15T10:33:23;14.90;66.70
51988;DHT22;38003;52.012;4.346;2022-11-15T10:36:17;14.80;66.60
51988;DHT22;38003;52.012;4.346;2022-11-15T10:38:56;14.70;66.60
51988;DHT22;38003;52.012;4.346;2022-11-15T10:41:45;14.70;66.60
51988;DHT22;38003;52.012;4.346;2022-11-15T10:44:25;14.70;66.40
51988;DHT22;38003;52.012;4.346;2022-11-15T10:50:07;14.80;66.60
51988;DHT22;38003;52.012;4.346;2022-11-15T10:52:52;14.80;66.30
51988;DHT22;38003;52.012;4.346;2022-11-15T10:55:24;14.80;66.10
51988;DHT22;38003;52.012;4.346;2022-11-15T10:57:55;14.80;66.20
51988;DHT22;38003;52.012;4.346;2022-11-15T11:00:32;14.60;66.10
51988;DHT22;38003;52.012;4.346;2022-11-15T11:03:02;14.80;66.10
51988;DHT22;38003;52.012;4.346;2022-11-15T11:05:32;14.60;65.70
51988;DHT22;38003;52.012;4.346;2022-11-15T11:08:21;14.60;66.20
51988;DHT22;38003;52.012;4.346;2022-11-15T11:10:53;14.70;65.90
51988;DHT22;38003;52.012;4.346;2022-11-15T11:13:30;14.80;65.90
51988;DHT22;38003;52.012;4.346;2022-11-15T11:16:15;14.80;65.90
51988;DHT22;38003;52.012;4.346;2022-11-15T11:18:51;14.70;65.10
51988;DHT22;38003;52.012;4.346;2022-11-15T11:21:32;14.70;65.80
51988;DHT22;38003;52.012;4.346;2022-11-15T11:24:10;14.70;65.80
51988;DHT22;38003;52.012;4.346;2022-11-15T11:26:46;14.70;65.60
51988;DHT22;38003;52.012;4.346;2022-11-15T11:29:36;14.70;65.30
51988;DHT22;38003;52.012;4.346;2022-11-15T11:32:19;14.80;65.50
51988;DHT22;38003;52.012;4.346;2022-11-15T11:34:58;14.80;65.40
51988;DHT22;38003;52.012;4.346;2022-11-15T11:37:35;14.90;65.60
51988;DHT22;38003;52.012;4.346;2022-11-15T11:40:16;14.90;65.40
51988;DHT22;38003;52.012;4.346;2022-11-15T11:42:52;14.80;64.90
51988;DHT22;38003;52.012;4.346;2022-11-15T11:45:49;14.80;65.30
51988;DHT22;38003;52.012;4.346;2022-11-15T11:48:29;14.70;65.10
51988;DHT22;38003;52.012;4.346;2022-11-15T11:51:05;14.80;65.00
51988;DHT22;38003;52.012;4.346;2022-11-15T11:53:39;14.70;65.10
51988;DHT22;38003;52.012;4.346;2022-11-15T11:56:16;14.80;65.00
51988;DHT22;38003;52.012;4.346;2022-11-15T11:58:46;14.90;64.70
51988;DHT22;38003;52.012;4.346;2022-11-15T12:01:20;14.90;65.10
51988;DHT22;38003;52.012;4.346;2022-11-15T12:03:54;14.90;65.00
51988;DHT22;38003;52.012;4.346;2022-11-15T12:06:30;14.90;64.90
51988;DHT22;38003;52.012;4.346;2022-11-15T12:09:02;14.90;64.70
51988;DHT22;38003;52.012;4.346;2022-11-15T12:11:38;14.80;64.50
51988;DHT22;38003;52.012;4.346;2022-11-15T12:14:21;14.90;64.70
51988;DHT22;38003;52.012;4.346;2022-11-15T12:16:49;14.90;64.70
51988;DHT22;38003;52.012;4.346;2022-11-15T12:19:18;14.90;64.50
51988;DHT22;38003;52.012;4.346;2022-11-15T12:21:50;14.90;64.80
51988;DHT22;38003;52.012;4.346;2022-11-15T12:24:24;14.90;64.70
51988;DHT22;38003;52.012;4.346;2022-11-15T12:26:59;14.90;64.20
51988;DHT22;38003;52.012;4.346;2022-11-15T12:29:33;15.00;64.10
51988;DHT22;38003;52.012;4.346;2022-11-15T12:32:03;15.00;64.50
51988;DHT22;38003;52.012;4.346;2022-11-15T12:34:41;15.10;63.80
51988;DHT22;38003;52.012;4.346;2022-11-15T12:37:33;15.10;64.30
51988;DHT22;38003;52.012;4.346;2022-11-15T12:40:18;15.20;63.80
51988;DHT22;38003;52.012;4.346;2022-11-15T12:46:02;15.00;63.50
51988;DHT22;38003;52.012;4.346;2022-11-15T12:48:56;15.10;64.30
51988;DHT22;38003;52.012;4.346;2022-11-15T12:57:52;15.40;63.90
51988;DHT22;38003;52.012;4.346;2022-11-15T13:00:44;15.30;63.60
51988;DHT22;38003;52.012;4.346;2022-11-15T13:03:27;15.20;63.10
51988;DHT22;38003;52.012;4.346;2022-11-15T13:08:52;15.10;62.60
51988;DHT22;38003;52.012;4.346;2022-11-15T13:11:47;15.10;63.90
51988;DHT22;38003;52.012;4.346;2022-11-15T13:14:43;15.10;63.50
51988;DHT22;38003;52.012;4.346;2022-11-15T13:17:35;15.20;63.80
51988;DHT22;38003;52.012;4.346;2022-11-15T13:20:28;15.20;63.70
51988;DHT22;38003;52.012;4.346;2022-11-15T13:23:02;15.20;63.70
51988;DHT22;38003;52.012;4.346;2022-11-15T13:26:08;15.10;63.40
51988;DHT22;38003;52.012;4.346;2022-11-15T13:28:41;15.10;63.30
51988;DHT22;38003;52.012;4.346;2022-11-15T13:31:30;15.00;63.30
51988;DHT22;38003;52.012;4.346;2022-11-15T13:34:13;15.00;62.50
51988;DHT22;38003;52.012;4.346;2022-11-15T13:37:03;15.00;63.00
51988;DHT22;38003;52.012;4.346;2022-11-15T13:39:32;15.00;62.90
51988;DHT22;38003;52.012;4.346;2022-11-15T13:42:00;15.10;62.70
51988;DHT22;38003;52.012;4.346;2022-11-15T13:44:30;15.00;62.80
51988;DHT22;38003;52.012;4.346;2022-11-15T13:47:05;15.00;63.10
51988;DHT22;38003;52.012;4.346;2022-11-15T13:49:34;15.00;62.60
51988;DHT22;38003;52.012;4.346;2022-11-15T13:52:04;15.00;62.80
51988;DHT22;38003;52.012;4.346;2022-11-15T13:54:36;14.90;62.20
51988;DHT22;38003;52.012;4.346;2022-11-15T13:57:12;14.90;63.10
51988;DHT22;38003;52.012;4.346;2022-11-15T13:59:45;15.00;62.90
51988;DHT22;38003;52.012;4.346;2022-11-15T14:02:17;14.90;62.30
51988;DHT22;38003;52.012;4.346;2022-11-15T14:04:49;15.00;63.00
51988;DHT22;38003;52.012;4.346;2022-11-15T14:07:19;15.00;62.70
51988;DHT22;38003;52.012;4.346;2022-11-15T14:09:48;15.00;62.40
51988;DHT22;38003;52.012;4.346;2022-11-15T14:12:25;14.90;62.40
51988;DHT22;38003;52.012;4.346;2022-11-15T14:14:53;14.90;62.70
51988;DHT22;38003;52.012;4.346;2022-11-15T14:17:35;14.90;62.80
51988;DHT22;38003;52.012;4.346;2022-11-15T14:20:20;14.90;62.80
51988;DHT22;38003;52.012;4.346;2022-11-15T14:22:52;15.00;62.40
51988;DHT22;38003;52.012;4.346;2022-11-15T14:25:21;15.00;62.70
51988;DHT22;38003;52.012;4.346;2022-11-15T14:28:11;15.10;62.80
51988;DHT22;38003;52.012;4.346;2022-11-15T14:30:40;15.10;62.90
51988;DHT22;38003;52.012;4.346;2022-11-15T14:33:20;15.00;62.60
51988;DHT22;38003;52.012;4.346;2022-11-15T14:35:49;15.10;62.70
51988;DHT22;38003;52.012;4.346;2022-11-15T14:38:17;15.00;62.90
51988;DHT22;38003;52.012;4.346;2022-11-15T14:40:45;14.90;62.80
51988;DHT22;38003;52.012;4.346;2022-11-15T14:43:13;14.90;62.90
51988;DHT22;38003;52.012;4.346;2022-11-15T14:45:41;14.90;63.00
51988;DHT22;38003;52.012;4.346;2022-11-15T14:48:09;14.90;62.90
51988;DHT22;38003;52.012;4.346;2022-11-15T14:50:38;14.90;62.70
51988;DHT22;38003;52.012;4.346;2022-11-15T14:53:06;14.90;63.50
51988;DHT22;38003;52.012;4.346;2022-11-15T14:55:35;14.90;62.90
51988;DHT22;38003;52.012;4.346;2022-11-15T14:58:04;14.90;62.90
51988;DHT22;38003;52.012;4.346;2022-11-15T15:00:34;14.90;62.80
51988;DHT22;38003;52.012;4.346;2022-11-15T15:03:03;14.80;62.90
51988;DHT22;38003;52.012;4.346;2022-11-15T15:05:33;14.80;62.90
51988;DHT22;38003;52.012;4.346;2022-11-15T15:08:03;14.90;62.90
51988;DHT22;38003;52.012;4.346;2022-11-15T15:10:33;14.90;63.20
51988;DHT22;38003;52.012;4.346;2022-11-15T15:13:13;14.90;63.10
51988;DHT22;38003;52.012;4.346;2022-11-15T15:15:43;15.00;63.10
51988;DHT22;38003;52.012;4.346;2022-11-15T15:18:11;15.00;63.10
51988;DHT22;38003;52.012;4.346;2022-11-15T15:20:40;15.00;62.90
51988;DHT22;38003;52.012;4.346;2022-11-15T15:23:14;14.90;62.90
51988;DHT22;38003;52.012;4.346;2022-11-15T15:25:43;15.10;63.00
51988;DHT22;38003;52.012;4.346;2022-11-15T15:28:12;14.90;63.30
51988;DHT22;38003;52.012;4.346;2022-11-15T15:30:40;15.10;63.60
51988;DHT22;38003;52.012;4.346;2022-11-15T15:33:08;15.00;63.90
51988;DHT22;38003;52.012;4.346;2022-11-15T15:35:35;15.00;64.20
51988;DHT22;38003;52.012;4.346;2022-11-15T15:38:03;15.00;65.00
51988;DHT22;38003;52.012;4.346;2022-11-15T15:40:33;15.00;64.70
51988;DHT22;38003;52.012;4.346;2022-11-15T15:43:01;14.90;64.70
51988;DHT22;38003;52.012;4.346;2022-11-15T15:45:28;14.80;64.90
51988;DHT22;38003;52.012;4.346;2022-11-15T15:47:56;14.80;65.00
51988;DHT22;38003;52.012;4.346;2022-11-15T15:50:26;14.80;65.10
51988;DHT22;38003;52.012;4.346;2022-11-15T15:52:55;14.80;65.40
51988;DHT22;38003;52.012;4.346;2022-11-15T15:55:25;14.70;65.40
51988;DHT22;38003;52.012;4.346;2022-11-15T15:57:54;14.70;65.50
51988;DHT22;38003;52.012;4.346;2022-11-15T16:00:24;14.70;65.80
51988;DHT22;38003;52.012;4.346;2022-11-15T16:02:52;14.50;66.20
51988;DHT22;38003;52.012;4.346;2022-11-15T16:05:21;14.50;66.40
51988;DHT22;38003;52.012;4.346;2022-11-15T16:07:49;14.50;66.50
51988;DHT22;38003;52.012;4.346;2022-11-15T16:10:21;14.40;66.80
51988;DHT22;38003;52.012;4.346;2022-11-15T16:12:49;14.50;66.70
51988;DHT22;38003;52.012;4.346;2022-11-15T16:15:19;14.40;67.00
51988;DHT22;38003;52.012;4.346;2022-11-15T16:17:49;14.40;67.30
51988;DHT22;38003;52.012;4.346;2022-11-15T16:20:31;14.40;67.20
51988;DHT22;38003;52.012;4.346;2022-11-15T16:22:59;14.40;67.50